createdAt,value
2016-12-06T00:00:57.517Z,0
2016-12-06T00:01:57.513Z,0
2016-12-06T00:02:57.510Z,0
2016-12-06T00:03:56.853Z,0
2016-12-06T00:04:57.509Z,0
2016-12-06T00:06:00.529Z,0
2016-12-06T00:06:57.161Z,0
2016-12-06T00:07:57.848Z,0
2016-12-06T00:08:57.813Z,0
2016-12-06T00:09:57.810Z,0
2016-12-06T00:10:57.513Z,0
2016-12-06T00:11:57.469Z,0
2016-12-06T00:12:57.805Z,0
2016-12-06T00:13:57.469Z,0
2016-12-06T00:14:57.789Z,0
2016-12-06T00:15:57.458Z,0
2016-12-06T00:16:57.137Z,0
2016-12-06T00:17:57.457Z,0
2016-12-06T00:18:57.777Z,0
2016-12-06T00:19:57.781Z,0
2016-12-06T00:20:57.773Z,0
2016-12-06T00:21:57.766Z,0
2016-12-06T00:22:57.765Z,0
2016-12-06T00:23:57.113Z,0
2016-12-06T00:24:57.433Z,0
2016-12-06T00:25:57.757Z,0
2016-12-06T00:26:57.749Z,0
2016-12-06T00:27:57.434Z,0
2016-12-06T00:28:57.741Z,0
2016-12-06T00:29:57.081Z,0
2016-12-06T00:30:56.761Z,0
2016-12-06T00:31:57.725Z,0
2016-12-06T00:32:57.721Z,0
2016-12-06T00:33:57.394Z,0
2016-12-06T00:34:57.394Z,0
2016-12-06T00:35:57.385Z,0
2016-12-06T00:36:57.057Z,0
2016-12-06T00:37:57.377Z,0
2016-12-06T00:38:57.722Z,0
2016-12-06T00:39:57.041Z,0
2016-12-06T00:40:57.366Z,0
2016-12-06T00:41:57.042Z,0
2016-12-06T00:42:57.362Z,0
2016-12-06T00:43:57.686Z,0
2016-12-06T00:44:57.022Z,0
2016-12-06T00:45:57.682Z,0
2016-12-06T00:46:57.006Z,0
2016-12-06T00:47:57.006Z,0
2016-12-06T00:48:57.658Z,0
2016-12-06T00:49:57.666Z,0
2016-12-06T00:50:56.670Z,0
2016-12-06T00:51:57.314Z,0
2016-12-06T00:52:57.634Z,0
2016-12-06T00:53:57.310Z,0
2016-12-06T00:54:57.015Z,0
2016-12-06T00:55:57.630Z,0
2016-12-06T00:56:57.299Z,0
2016-12-06T00:57:57.623Z,0
2016-12-06T00:58:57.295Z,0
2016-12-06T00:59:56.963Z,0
2016-12-06T01:00:56.959Z,0
2016-12-06T01:01:57.275Z,0
2016-12-06T01:02:57.274Z,0
2016-12-06T01:03:57.602Z,0
2016-12-06T01:04:57.602Z,0
2016-12-06T01:05:57.267Z,0
2016-12-06T01:06:57.259Z,0
2016-12-06T01:07:57.593Z,0
2016-12-06T01:08:56.927Z,0
2016-12-06T01:09:57.255Z,0
2016-12-06T01:10:57.252Z,0
2016-12-06T01:11:56.588Z,0
2016-12-06T01:12:57.235Z,0
2016-12-06T01:13:57.239Z,0
2016-12-06T01:14:57.563Z,0
2016-12-06T01:15:56.911Z,0
2016-12-06T01:16:57.227Z,0
2016-12-06T01:17:57.535Z,0
2016-12-06T01:18:56.567Z,0
2016-12-06T01:19:57.207Z,0
2016-12-06T01:20:57.531Z,0
2016-12-06T01:21:56.551Z,0
2016-12-06T01:22:57.195Z,0
2016-12-06T01:23:57.523Z,0
2016-12-06T01:24:57.512Z,0
2016-12-06T01:25:57.216Z,0
2016-12-06T01:26:57.187Z,0
2016-12-06T01:27:56.855Z,0
2016-12-06T01:28:57.171Z,0
2016-12-06T01:29:57.503Z,0
2016-12-06T01:30:56.835Z,0
2016-12-06T01:31:57.163Z,0
2016-12-06T01:32:57.483Z,0
2016-12-06T01:33:57.160Z,0
2016-12-06T01:34:56.835Z,0
2016-12-06T01:35:56.820Z,0
2016-12-06T01:36:57.483Z,0
2016-12-06T01:37:57.471Z,0
2016-12-06T01:38:56.807Z,0
2016-12-06T01:39:57.459Z,0
2016-12-06T01:40:57.128Z,0
2016-12-06T01:41:57.452Z,0
2016-12-06T01:42:56.799Z,0
2016-12-06T01:43:57.124Z,0
2016-12-06T01:44:57.468Z,0
2016-12-06T01:45:56.788Z,0
2016-12-06T01:46:57.103Z,0
2016-12-06T01:47:57.435Z,0
2016-12-06T01:48:57.099Z,0
2016-12-06T01:49:57.095Z,0
2016-12-06T01:50:57.420Z,0
2016-12-06T01:51:57.408Z,0
2016-12-06T01:52:57.072Z,0
2016-12-06T01:53:57.407Z,0
2016-12-06T01:54:57.068Z,0
2016-12-06T01:55:57.400Z,0
2016-12-06T01:56:57.064Z,0
2016-12-06T01:57:57.392Z,0
2016-12-06T01:58:57.056Z,0
2016-12-06T01:59:57.076Z,0
2016-12-06T02:00:56.400Z,0
2016-12-06T02:01:57.048Z,0
2016-12-06T02:02:57.041Z,0
2016-12-06T02:03:57.044Z,0
2016-12-06T02:04:56.700Z,0
2016-12-06T02:05:57.029Z,0
2016-12-06T02:06:57.353Z,0
2016-12-06T02:07:57.353Z,0
2016-12-06T02:08:56.696Z,0
2016-12-06T02:09:57.017Z,0
2016-12-06T02:10:57.333Z,0
2016-12-06T02:11:57.341Z,0
2016-12-06T02:12:57.001Z,0
2016-12-06T02:13:57.321Z,0
2016-12-06T02:14:57.001Z,0
2016-12-06T02:15:57.325Z,0
2016-12-06T02:16:56.333Z,0
2016-12-06T02:17:57.305Z,0
2016-12-06T02:18:57.309Z,0
2016-12-06T02:19:56.977Z,0
2016-12-06T02:20:56.966Z,0
2016-12-06T02:21:56.317Z,0
2016-12-06T02:22:57.293Z,0
2016-12-06T02:23:57.294Z,0
2016-12-06T02:24:57.283Z,0
2016-12-06T02:25:56.297Z,0
2016-12-06T02:26:57.266Z,0
2016-12-06T02:27:56.615Z,0
2016-12-06T02:28:56.610Z,0
2016-12-06T02:29:56.610Z,0
2016-12-06T02:30:56.922Z,0
2016-12-06T02:31:57.254Z,0
2016-12-06T02:32:56.918Z,0
2016-12-06T02:33:57.238Z,0
2016-12-06T02:34:56.918Z,0
2016-12-06T02:35:57.230Z,0
2016-12-06T02:36:56.910Z,0
2016-12-06T02:37:57.227Z,0
2016-12-06T02:38:56.570Z,0
2016-12-06T02:39:56.890Z,0
2016-12-06T02:40:56.886Z,0
2016-12-06T02:41:56.882Z,0
2016-12-06T02:42:57.215Z,0
2016-12-06T02:43:57.202Z,0
2016-12-06T02:44:57.174Z,0
2016-12-06T02:45:57.199Z,0
2016-12-06T02:46:56.867Z,0
2016-12-06T02:47:56.535Z,0
2016-12-06T02:48:56.855Z,0
2016-12-06T02:49:56.883Z,0
2016-12-06T02:50:56.519Z,0
2016-12-06T02:51:56.851Z,0
2016-12-06T02:52:56.519Z,0
2016-12-06T02:53:56.835Z,0
2016-12-06T02:54:56.835Z,0
2016-12-06T02:55:57.166Z,0
2016-12-06T02:56:57.151Z,0
2016-12-06T02:57:56.823Z,0
2016-12-06T02:58:57.151Z,0
2016-12-06T02:59:56.491Z,0
2016-12-06T03:00:56.484Z,0
2016-12-06T03:01:56.483Z,0
2016-12-06T03:02:56.797Z,0
2016-12-06T03:03:57.123Z,0
2016-12-06T03:04:56.469Z,0
2016-12-06T03:05:56.472Z,0
2016-12-06T03:06:56.788Z,0
2016-12-06T03:07:56.784Z,0
2016-12-06T03:08:56.443Z,0
2016-12-06T03:09:56.979Z,0
2016-12-06T03:10:56.116Z,16
2016-12-06T03:11:56.444Z,12
2016-12-06T03:12:56.432Z,12
2016-12-06T03:13:56.760Z,16
2016-12-06T03:14:57.080Z,16
2016-12-06T03:15:56.748Z,12
2016-12-06T03:16:56.740Z,16
2016-12-06T03:17:56.740Z,0
2016-12-06T03:18:56.736Z,0
2016-12-06T03:19:57.060Z,0
2016-12-06T03:20:56.404Z,0
2016-12-06T03:21:56.724Z,0
2016-12-06T03:22:57.049Z,0
2016-12-06T03:23:57.056Z,0
2016-12-06T03:24:57.047Z,0
2016-12-06T03:25:56.716Z,0
2016-12-06T03:26:56.408Z,0
2016-12-06T03:27:56.709Z,0
2016-12-06T03:28:56.701Z,0
2016-12-06T03:29:56.377Z,0
2016-12-06T03:30:56.361Z,0
2016-12-06T03:31:56.684Z,0
2016-12-06T03:32:56.353Z,0
2016-12-06T03:33:57.013Z,0
2016-12-06T03:34:56.673Z,0
2016-12-06T03:35:56.665Z,0
2016-12-06T03:36:56.337Z,0
2016-12-06T03:37:56.997Z,0
2016-12-06T03:38:56.657Z,0
2016-12-06T03:39:56.325Z,0
2016-12-06T03:40:56.477Z,0
2016-12-06T03:41:56.973Z,0
2016-12-06T03:42:56.649Z,0
2016-12-06T03:43:56.969Z,0
2016-12-06T03:44:56.965Z,0
2016-12-06T03:45:56.630Z,0
2016-12-06T03:46:56.293Z,0
2016-12-06T03:47:56.953Z,0
2016-12-06T03:48:56.942Z,0
2016-12-06T03:49:56.934Z,0
2016-12-06T03:50:56.302Z,0
2016-12-06T03:51:56.606Z,0
2016-12-06T03:52:56.637Z,0
2016-12-06T03:53:56.944Z,0
2016-12-06T03:54:56.593Z,0
2016-12-06T03:55:56.258Z,0
2016-12-06T03:56:56.589Z,0
2016-12-06T03:57:56.253Z,0
2016-12-06T03:58:56.573Z,0
2016-12-06T03:59:56.575Z,0
2016-12-06T04:00:56.242Z,0
2016-12-06T04:01:56.562Z,0
2016-12-06T04:02:56.898Z,0
2016-12-06T04:03:56.894Z,0
2016-12-06T04:04:56.870Z,0
2016-12-06T04:05:56.542Z,0
2016-12-06T04:06:56.214Z,0
2016-12-06T04:07:56.538Z,0
2016-12-06T04:08:56.536Z,0
2016-12-06T04:09:56.535Z,0
2016-12-06T04:10:56.194Z,0
2016-12-06T04:11:56.522Z,0
2016-12-06T04:12:56.526Z,0
2016-12-06T04:13:56.514Z,0
2016-12-06T04:14:56.847Z,0
2016-12-06T04:15:56.186Z,0
2016-12-06T04:16:56.178Z,0
2016-12-06T04:17:56.826Z,0
2016-12-06T04:18:56.502Z,0
2016-12-06T04:19:56.826Z,0
2016-12-06T04:20:56.158Z,0
2016-12-06T04:21:56.486Z,16
2016-12-06T04:22:56.806Z,0
2016-12-06T04:23:56.482Z,0
2016-12-06T04:24:56.507Z,0
2016-12-06T04:25:56.463Z,0
2016-12-06T04:26:56.138Z,0
2016-12-06T04:27:56.474Z,0
2016-12-06T04:28:56.123Z,0
2016-12-06T04:29:56.119Z,0
2016-12-06T04:30:56.447Z,0
2016-12-06T04:31:55.794Z,0
2016-12-06T04:32:56.803Z,0
2016-12-06T04:33:56.439Z,0
2016-12-06T04:34:56.439Z,0
2016-12-06T04:35:56.423Z,0
2016-12-06T04:36:56.746Z,0
2016-12-06T04:37:56.419Z,0
2016-12-06T04:38:56.419Z,0
2016-12-06T04:39:56.419Z,0
2016-12-06T04:40:56.091Z,0
2016-12-06T04:41:56.723Z,0
2016-12-06T04:42:56.079Z,0
2016-12-06T04:43:56.399Z,0
2016-12-06T04:44:56.727Z,0
2016-12-06T04:45:56.715Z,0
2016-12-06T04:46:56.707Z,0
2016-12-06T04:47:55.727Z,0
2016-12-06T04:48:56.039Z,0
2016-12-06T04:49:56.727Z,0
2016-12-06T04:50:56.699Z,0
2016-12-06T04:51:56.356Z,0
2016-12-06T04:52:56.679Z,0
2016-12-06T04:53:56.355Z,0
2016-12-06T04:54:56.352Z,0
2016-12-06T04:55:56.352Z,0
2016-12-06T04:56:56.332Z,0
2016-12-06T04:57:56.015Z,0
2016-12-06T04:58:56.324Z,0
2016-12-06T04:59:56.012Z,0
2016-12-06T05:00:56.331Z,0
2016-12-06T05:01:56.652Z,0
2016-12-06T05:02:56.316Z,0
2016-12-06T05:03:55.991Z,0
2016-12-06T05:04:56.640Z,0
2016-12-06T05:05:56.308Z,0
2016-12-06T05:06:56.304Z,0
2016-12-06T05:07:55.964Z,0
2016-12-06T05:08:55.971Z,0
2016-12-06T05:09:56.626Z,0
2016-12-06T05:10:56.608Z,0
2016-12-06T05:11:56.640Z,0
2016-12-06T05:12:56.604Z,0
2016-12-06T05:13:56.600Z,0
2016-12-06T05:14:56.268Z,0
2016-12-06T05:15:56.596Z,0
2016-12-06T05:16:56.264Z,0
2016-12-06T05:17:56.588Z,0
2016-12-06T05:18:56.600Z,0
2016-12-06T05:19:55.928Z,0
2016-12-06T05:20:56.252Z,0
2016-12-06T05:21:56.253Z,0
2016-12-06T05:22:56.569Z,0
2016-12-06T05:23:56.236Z,0
2016-12-06T05:24:56.233Z,0
2016-12-06T05:25:56.200Z,16
2016-12-06T05:26:56.224Z,12
2016-12-06T05:27:56.553Z,0
2016-12-06T05:28:56.545Z,0
2016-12-06T05:29:56.212Z,0
2016-12-06T05:30:56.213Z,0
2016-12-06T05:31:56.205Z,12
2016-12-06T05:32:55.888Z,0
2016-12-06T05:33:56.197Z,0
2016-12-06T05:34:56.193Z,0
2016-12-06T05:35:56.185Z,0
2016-12-06T05:36:55.517Z,12
2016-12-06T05:37:56.181Z,12
2016-12-06T05:38:56.177Z,0
2016-12-06T05:39:55.857Z,0
2016-12-06T05:40:56.497Z,0
2016-12-06T05:41:56.157Z,0
2016-12-06T05:42:56.149Z,0
2016-12-06T05:43:56.145Z,0
2016-12-06T05:44:56.149Z,0
2016-12-06T05:45:56.137Z,0
2016-12-06T05:46:55.813Z,0
2016-12-06T05:47:55.810Z,0
2016-12-06T05:48:56.133Z,12
2016-12-06T05:49:55.829Z,12
2016-12-06T05:50:56.125Z,0
2016-12-06T05:51:55.794Z,0
2016-12-06T05:52:56.117Z,0
2016-12-06T05:53:55.782Z,0
2016-12-06T05:54:55.793Z,0
2016-12-06T05:55:56.098Z,0
2016-12-06T05:56:56.429Z,0
2016-12-06T05:57:56.107Z,0
2016-12-06T05:58:56.093Z,0
2016-12-06T05:59:56.418Z,0
2016-12-06T06:00:56.087Z,0
2016-12-06T06:01:56.410Z,0
2016-12-06T06:02:55.753Z,0
2016-12-06T06:03:56.082Z,0
2016-12-06T06:04:56.402Z,0
2016-12-06T06:05:56.394Z,0
2016-12-06T06:06:56.058Z,0
2016-12-06T06:07:55.738Z,0
2016-12-06T06:08:56.386Z,0
2016-12-06T06:09:56.394Z,0
2016-12-06T06:10:56.054Z,0
2016-12-06T06:11:55.734Z,0
2016-12-06T06:12:55.710Z,0
2016-12-06T06:13:56.366Z,0
2016-12-06T06:14:56.362Z,0
2016-12-06T06:15:56.030Z,0
2016-12-06T06:16:56.014Z,12
2016-12-06T06:17:56.346Z,12
2016-12-06T06:18:56.347Z,0
2016-12-06T06:19:56.342Z,0
2016-12-06T06:20:56.015Z,0
2016-12-06T06:21:56.343Z,0
2016-12-06T06:22:56.331Z,0
2016-12-06T06:23:56.327Z,0
2016-12-06T06:24:55.999Z,0
2016-12-06T06:25:56.319Z,0
2016-12-06T06:26:56.319Z,0
2016-12-06T06:27:56.311Z,0
2016-12-06T06:28:56.307Z,0
2016-12-06T06:29:56.303Z,4
2016-12-06T06:30:55.971Z,4
2016-12-06T06:31:55.995Z,0
2016-12-06T06:32:56.295Z,0
2016-12-06T06:33:56.282Z,4
2016-12-06T06:34:56.283Z,4
2016-12-06T06:35:55.950Z,0
2016-12-06T06:36:55.947Z,4
2016-12-06T06:37:56.267Z,4
2016-12-06T06:38:56.263Z,8
2016-12-06T06:39:56.259Z,8
2016-12-06T06:40:56.255Z,4
2016-12-06T06:41:56.251Z,8
2016-12-06T06:42:56.247Z,8
2016-12-06T06:43:56.247Z,12
2016-12-06T06:44:55.915Z,12
2016-12-06T06:45:56.239Z,16
2016-12-06T06:46:56.235Z,16
2016-12-06T06:47:55.903Z,16
2016-12-06T06:48:56.227Z,20
2016-12-06T06:49:56.231Z,20
2016-12-06T06:50:56.223Z,24
2016-12-06T06:51:56.210Z,28
2016-12-06T06:52:56.211Z,28
2016-12-06T06:53:56.207Z,32
2016-12-06T06:54:56.199Z,48
2016-12-06T06:55:56.224Z,48
2016-12-06T06:56:56.191Z,40
2016-12-06T06:57:55.859Z,40
2016-12-06T06:58:55.855Z,48
2016-12-06T06:59:56.175Z,48
2016-12-06T07:00:56.171Z,52
2016-12-06T07:01:56.174Z,60
2016-12-06T07:02:56.171Z,76
2016-12-06T07:03:56.163Z,76
2016-12-06T07:04:56.163Z,68
2016-12-06T07:05:55.839Z,72
2016-12-06T07:06:56.147Z,92
2016-12-06T07:07:56.175Z,92
2016-12-06T07:08:56.141Z,92
2016-12-06T07:09:56.139Z,96
2016-12-06T07:10:56.131Z,96
2016-12-06T07:11:55.803Z,104
2016-12-06T07:12:56.131Z,112
2016-12-06T07:13:56.119Z,116
2016-12-06T07:14:56.115Z,120
2016-12-06T07:15:55.467Z,128
2016-12-06T07:16:56.111Z,144
2016-12-06T07:17:55.775Z,148
2016-12-06T07:18:56.096Z,144
2016-12-06T07:19:56.100Z,152
2016-12-06T07:20:56.088Z,152
2016-12-06T07:21:55.436Z,156
2016-12-06T07:22:55.755Z,172
2016-12-06T07:23:56.080Z,176
2016-12-06T07:24:55.747Z,180
2016-12-06T07:25:56.068Z,204
2016-12-06T07:26:56.064Z,208
2016-12-06T07:27:56.059Z,204
2016-12-06T07:28:56.056Z,208
2016-12-06T07:29:56.052Z,204
2016-12-06T07:30:55.724Z,200
2016-12-06T07:31:56.044Z,212
2016-12-06T07:32:55.748Z,212
2016-12-06T07:33:55.724Z,220
2016-12-06T07:34:56.032Z,240
2016-12-06T07:35:56.036Z,244
2016-12-06T07:36:56.028Z,252
2016-12-06T07:37:55.712Z,252
2016-12-06T07:38:56.016Z,272
2016-12-06T07:39:55.688Z,296
2016-12-06T07:40:56.012Z,300
2016-12-06T07:41:56.004Z,304
2016-12-06T07:42:55.348Z,304
2016-12-06T07:43:55.672Z,300
2016-12-06T07:44:55.992Z,304
2016-12-06T07:45:55.664Z,300
2016-12-06T07:46:55.984Z,316
2016-12-06T07:47:55.976Z,320
2016-12-06T07:48:55.976Z,312
2016-12-06T07:49:55.975Z,324
2016-12-06T07:50:55.644Z,372
2016-12-06T07:51:55.964Z,388
2016-12-06T07:52:55.968Z,368
2016-12-06T07:53:55.953Z,368
2016-12-06T07:54:55.948Z,380
2016-12-06T07:55:55.949Z,388
2016-12-06T07:56:55.941Z,384
2016-12-06T07:57:55.613Z,420
2016-12-06T07:58:55.936Z,444
2016-12-06T07:59:55.605Z,456
2016-12-06T08:00:55.924Z,456
2016-12-06T08:01:55.920Z,440
2016-12-06T08:02:55.921Z,436
2016-12-06T08:03:55.265Z,440
2016-12-06T08:04:55.911Z,448
2016-12-06T08:05:55.585Z,464
2016-12-06T08:06:55.577Z,500
2016-12-06T08:07:55.573Z,556
2016-12-06T08:08:55.565Z,552
2016-12-06T08:09:55.897Z,540
2016-12-06T08:10:55.885Z,520
2016-12-06T08:11:55.885Z,548
2016-12-06T08:12:55.877Z,596
2016-12-06T08:13:55.549Z,604
2016-12-06T08:14:55.555Z,632
2016-12-06T08:15:55.861Z,644
2016-12-06T08:16:55.542Z,696
2016-12-06T08:17:55.533Z,676
2016-12-06T08:18:55.529Z,680
2016-12-06T08:19:55.845Z,704
2016-12-06T08:20:55.862Z,740
2016-12-06T08:21:55.522Z,752
2016-12-06T08:22:55.833Z,756
2016-12-06T08:23:55.830Z,768
2016-12-06T08:24:55.830Z,756
2016-12-06T08:25:55.506Z,728
2016-12-06T08:26:55.829Z,744
2016-12-06T08:27:55.534Z,780
2016-12-06T08:28:55.818Z,772
2016-12-06T08:29:55.818Z,752
2016-12-06T08:30:55.802Z,760
2016-12-06T08:31:55.806Z,832
2016-12-06T08:32:55.806Z,900
2016-12-06T08:33:55.790Z,880
2016-12-06T08:34:55.462Z,964
2016-12-06T08:35:55.466Z,1024
2016-12-06T08:36:55.778Z,1000
2016-12-06T08:37:55.454Z,940
2016-12-06T08:38:55.450Z,976
2016-12-06T08:39:55.442Z,1096
2016-12-06T08:40:55.763Z,1148
2016-12-06T08:41:55.762Z,1144
2016-12-06T08:42:55.758Z,1156
2016-12-06T08:43:55.754Z,1208
2016-12-06T08:44:55.426Z,1240
2016-12-06T08:45:55.419Z,1200
2016-12-06T08:46:55.743Z,1200
2016-12-06T08:47:55.734Z,1204
2016-12-06T08:48:55.406Z,1248
2016-12-06T08:49:55.078Z,1304
2016-12-06T08:50:55.727Z,1256
2016-12-06T08:51:55.727Z,1276
2016-12-06T08:52:55.392Z,1224
2016-12-06T08:53:55.715Z,1224
2016-12-06T08:54:55.711Z,1260
2016-12-06T08:55:55.703Z,1244
2016-12-06T08:56:55.699Z,1192
2016-12-06T08:57:55.707Z,1200
2016-12-06T08:58:55.375Z,1160
2016-12-06T08:59:55.719Z,1072
2016-12-06T09:00:55.695Z,1100
2016-12-06T09:01:55.683Z,1144
2016-12-06T09:02:55.683Z,1200
2016-12-06T09:03:55.683Z,1252
2016-12-06T09:04:55.675Z,1256
2016-12-06T09:05:55.671Z,1252
2016-12-06T09:06:55.343Z,1320
2016-12-06T09:07:55.335Z,1452
2016-12-06T09:08:55.655Z,1496
2016-12-06T09:09:55.331Z,1448
2016-12-06T09:10:55.647Z,1444
2016-12-06T09:11:55.647Z,1508
2016-12-06T09:12:55.323Z,1536
2016-12-06T09:13:55.312Z,1584
2016-12-06T09:14:55.631Z,1536
2016-12-06T09:15:55.632Z,1456
2016-12-06T09:16:55.307Z,1516
2016-12-06T09:17:55.652Z,1656
2016-12-06T09:18:55.628Z,1704
2016-12-06T09:19:55.632Z,1644
2016-12-06T09:20:55.764Z,1608
2016-12-06T09:21:55.608Z,1588
2016-12-06T09:22:55.631Z,1544
2016-12-06T09:23:55.600Z,1496
2016-12-06T09:24:55.600Z,1552
2016-12-06T09:25:55.745Z,1532
2016-12-06T09:26:55.272Z,1504
2016-12-06T09:27:55.590Z,1588
2016-12-06T09:28:55.584Z,1664
2016-12-06T09:29:55.576Z,1628
2016-12-06T09:30:55.604Z,1624
2016-12-06T09:31:55.574Z,1656
2016-12-06T09:32:55.600Z,1636
2016-12-06T09:33:55.564Z,1596
2016-12-06T09:34:55.571Z,1552
2016-12-06T09:35:55.552Z,1588
2016-12-06T09:36:55.552Z,1692
2016-12-06T09:37:55.549Z,1808
2016-12-06T09:38:55.544Z,1956
2016-12-06T09:39:55.548Z,1996
2016-12-06T09:40:55.536Z,2004
2016-12-06T09:41:55.537Z,1992
2016-12-06T09:42:55.205Z,1836
2016-12-06T09:43:55.200Z,1600
2016-12-06T09:44:55.193Z,1456
2016-12-06T09:45:55.533Z,1344
2016-12-06T09:46:55.521Z,1188
2016-12-06T09:47:55.557Z,1220
2016-12-06T09:48:55.517Z,1368
2016-12-06T09:49:55.180Z,1188
2016-12-06T09:50:55.174Z,1060
2016-12-06T09:51:55.177Z,1212
2016-12-06T09:52:55.169Z,1560
2016-12-06T09:53:55.169Z,1608
2016-12-06T09:54:55.485Z,1668
2016-12-06T09:55:55.157Z,1712
2016-12-06T09:56:55.485Z,1704
2016-12-06T09:57:55.473Z,1716
2016-12-06T09:58:55.477Z,1752
2016-12-06T09:59:55.477Z,1820
2016-12-06T10:00:55.473Z,1944
2016-12-06T10:01:54.813Z,2020
2016-12-06T10:02:55.461Z,2032
2016-12-06T10:03:55.453Z,2024
2016-12-06T10:04:55.457Z,1972
2016-12-06T10:05:55.445Z,1952
2016-12-06T10:06:55.446Z,1952
2016-12-06T10:07:55.441Z,1972
2016-12-06T10:08:55.114Z,2008
2016-12-06T10:09:55.433Z,1972
2016-12-06T10:10:55.459Z,1888
2016-12-06T10:11:55.102Z,1928
2016-12-06T10:12:55.426Z,1992
2016-12-06T10:13:55.426Z,1944
2016-12-06T10:14:55.418Z,1880
2016-12-06T10:15:55.418Z,1820
2016-12-06T10:16:55.410Z,1732
2016-12-06T10:17:55.410Z,1668
2016-12-06T10:18:55.078Z,1680
2016-12-06T10:19:55.398Z,1756
2016-12-06T10:20:55.070Z,1796
2016-12-06T10:21:55.398Z,1792
2016-12-06T10:22:55.390Z,1752
2016-12-06T10:23:55.418Z,1712
2016-12-06T10:24:55.382Z,1696
2016-12-06T10:25:55.382Z,1692
2016-12-06T10:26:55.050Z,1740
2016-12-06T10:27:55.094Z,1768
2016-12-06T10:28:55.374Z,1776
2016-12-06T10:29:55.042Z,1792
2016-12-06T10:30:55.388Z,1788
2016-12-06T10:31:55.367Z,1844
2016-12-06T10:32:55.359Z,1868
2016-12-06T10:33:55.351Z,1900
2016-12-06T10:34:55.351Z,1956
2016-12-06T10:35:55.359Z,1984
2016-12-06T10:36:55.344Z,1996
2016-12-06T10:37:55.339Z,2012
2016-12-06T10:38:55.339Z,2032
2016-12-06T10:39:55.007Z,2040
2016-12-06T10:40:55.335Z,2048
2016-12-06T10:41:55.327Z,2092
2016-12-06T10:42:55.331Z,2108
2016-12-06T10:43:55.339Z,2132
2016-12-06T10:44:54.995Z,2176
2016-12-06T10:45:54.999Z,2236
2016-12-06T10:46:55.307Z,2280
2016-12-06T10:47:54.983Z,2292
2016-12-06T10:48:55.311Z,2304
2016-12-06T10:49:55.301Z,2276
2016-12-06T10:50:55.299Z,2240
2016-12-06T10:51:55.295Z,2204
2016-12-06T10:52:54.968Z,2200
2016-12-06T10:53:54.963Z,2196
2016-12-06T10:54:54.635Z,2164
2016-12-06T10:55:55.280Z,2068
2016-12-06T10:56:54.952Z,2040
2016-12-06T10:57:55.276Z,2100
2016-12-06T10:58:55.273Z,2096
2016-12-06T10:59:55.275Z,2016
2016-12-06T11:00:55.276Z,2000
2016-12-06T11:01:55.264Z,2040
2016-12-06T11:02:55.256Z,1976
2016-12-06T11:03:55.252Z,1920
2016-12-06T11:04:54.928Z,1916
2016-12-06T11:05:54.928Z,1920
2016-12-06T11:06:54.920Z,1924
2016-12-06T11:07:54.916Z,1896
2016-12-06T11:08:55.240Z,1872
2016-12-06T11:09:55.244Z,1876
2016-12-06T11:10:54.912Z,1888
2016-12-06T11:11:55.244Z,1900
2016-12-06T11:12:55.228Z,1912
2016-12-06T11:13:55.224Z,1912
2016-12-06T11:14:55.220Z,1904
2016-12-06T11:15:55.220Z,1936
2016-12-06T11:16:55.212Z,1992
2016-12-06T11:17:54.884Z,2000
2016-12-06T11:18:55.209Z,2032
2016-12-06T11:19:55.205Z,2072
2016-12-06T11:20:55.200Z,2116
2016-12-06T11:21:55.197Z,2100
2016-12-06T11:22:54.865Z,2036
2016-12-06T11:23:55.197Z,2008
2016-12-06T11:24:54.868Z,1996
2016-12-06T11:25:55.200Z,1996
2016-12-06T11:26:55.181Z,1992
2016-12-06T11:27:54.853Z,1984
2016-12-06T11:28:54.853Z,1956
2016-12-06T11:29:54.845Z,1980
2016-12-06T11:30:54.845Z,2028
2016-12-06T11:31:55.177Z,2024
2016-12-06T11:32:55.161Z,2032
2016-12-06T11:33:55.169Z,2068
2016-12-06T11:34:54.833Z,2052
2016-12-06T11:35:55.153Z,2104
2016-12-06T11:36:54.825Z,2152
2016-12-06T11:37:55.149Z,2148
2016-12-06T11:38:55.149Z,2124
2016-12-06T11:39:55.145Z,2116
2016-12-06T11:40:55.285Z,2136
2016-12-06T11:41:55.137Z,2136
2016-12-06T11:42:55.133Z,2140
2016-12-06T11:43:55.129Z,2100
2016-12-06T11:44:55.129Z,2080
2016-12-06T11:45:54.797Z,2064
2016-12-06T11:46:55.134Z,2112
2016-12-06T11:47:55.154Z,2108
2016-12-06T11:48:55.121Z,2132
2016-12-06T11:49:55.114Z,2164
2016-12-06T11:50:55.114Z,2112
2016-12-06T11:51:55.102Z,2084
2016-12-06T11:52:55.106Z,2112
2016-12-06T11:53:55.098Z,2124
2016-12-06T11:54:55.098Z,2120
2016-12-06T11:55:55.090Z,2108
2016-12-06T11:56:55.093Z,2120
2016-12-06T11:57:55.086Z,2152
2016-12-06T11:58:55.086Z,2116
2016-12-06T11:59:55.078Z,2124
2016-12-06T12:00:54.763Z,2144
2016-12-06T12:01:54.426Z,2156
2016-12-06T12:02:55.070Z,2148
2016-12-06T12:03:54.742Z,2144
2016-12-06T12:04:55.094Z,2164
2016-12-06T12:05:54.738Z,2180
2016-12-06T12:06:55.062Z,2176
2016-12-06T12:07:55.058Z,2172
2016-12-06T12:08:55.054Z,2176
2016-12-06T12:09:54.730Z,2156
2016-12-06T12:10:55.050Z,2124
2016-12-06T12:11:55.043Z,2140
2016-12-06T12:12:55.042Z,2132
2016-12-06T12:13:54.714Z,2124
2016-12-06T12:14:55.038Z,2144
2016-12-06T12:15:54.703Z,2200
2016-12-06T12:16:55.030Z,2240
2016-12-06T12:17:55.026Z,2236
2016-12-06T12:18:55.056Z,2236
2016-12-06T12:19:55.027Z,2192
2016-12-06T12:20:55.019Z,2156
2016-12-06T12:21:55.015Z,2136
2016-12-06T12:22:55.019Z,2104
2016-12-06T12:23:54.367Z,2064
2016-12-06T12:24:55.007Z,2056
2016-12-06T12:25:55.003Z,2056
2016-12-06T12:26:54.679Z,2024
2016-12-06T12:27:54.999Z,2024
2016-12-06T12:28:54.683Z,2036
2016-12-06T12:29:54.991Z,2016
2016-12-06T12:30:54.991Z,1964
2016-12-06T12:31:54.667Z,1920
2016-12-06T12:32:54.992Z,1920
2016-12-06T12:33:54.988Z,1896
2016-12-06T12:34:54.692Z,1892
2016-12-06T12:35:54.651Z,1900
2016-12-06T12:36:54.951Z,1892
2016-12-06T12:37:54.967Z,1876
2016-12-06T12:38:54.648Z,1856
2016-12-06T12:39:54.964Z,1852
2016-12-06T12:40:54.640Z,1844
2016-12-06T12:41:54.964Z,1836
2016-12-06T12:42:54.960Z,1820
2016-12-06T12:43:54.632Z,1836
2016-12-06T12:44:54.956Z,1836
2016-12-06T12:45:54.944Z,1812
2016-12-06T12:46:54.627Z,1776
2016-12-06T12:47:54.940Z,1756
2016-12-06T12:48:54.936Z,1780
2016-12-06T12:49:54.932Z,1768
2016-12-06T12:50:54.940Z,1764
2016-12-06T12:51:54.928Z,1792
2016-12-06T12:52:54.932Z,1752
2016-12-06T12:53:54.924Z,1720
2016-12-06T12:54:54.928Z,1680
2016-12-06T12:55:54.592Z,1640
2016-12-06T12:56:54.920Z,1604
2016-12-06T12:57:54.592Z,1584
2016-12-06T12:58:54.588Z,1572
2016-12-06T12:59:54.908Z,1568
2016-12-06T13:00:54.904Z,1576
2016-12-06T13:01:54.580Z,1572
2016-12-06T13:02:54.572Z,1568
2016-12-06T13:03:54.896Z,1556
2016-12-06T13:04:54.568Z,1532
2016-12-06T13:05:54.568Z,1528
2016-12-06T13:06:54.884Z,1524
2016-12-06T13:07:54.880Z,1512
2016-12-06T13:08:54.564Z,1544
2016-12-06T13:09:54.888Z,1564
2016-12-06T13:10:54.872Z,1576
2016-12-06T13:11:54.545Z,1532
2016-12-06T13:12:54.545Z,1488
2016-12-06T13:13:54.865Z,1468
2016-12-06T13:14:54.860Z,1480
2016-12-06T13:15:54.533Z,1472
2016-12-06T13:16:54.861Z,1488
2016-12-06T13:17:54.861Z,1476
2016-12-06T13:18:54.525Z,1456
2016-12-06T13:19:54.845Z,1448
2016-12-06T13:20:54.521Z,1444
2016-12-06T13:21:54.841Z,1456
2016-12-06T13:22:54.837Z,1492
2016-12-06T13:23:54.517Z,1516
2016-12-06T13:24:54.837Z,1472
2016-12-06T13:25:54.833Z,1448
2016-12-06T13:26:54.825Z,1464
2016-12-06T13:27:54.825Z,1416
2016-12-06T13:28:54.173Z,1416
2016-12-06T13:29:54.817Z,1428
2016-12-06T13:30:54.489Z,1424
2016-12-06T13:31:54.818Z,1424
2016-12-06T13:32:54.161Z,1440
2016-12-06T13:33:54.805Z,1440
2016-12-06T13:34:54.801Z,1420
2016-12-06T13:35:54.801Z,1396
2016-12-06T13:36:54.798Z,1360
2016-12-06T13:37:54.801Z,1320
2016-12-06T13:38:54.789Z,1284
2016-12-06T13:39:54.790Z,1256
2016-12-06T13:40:54.466Z,1256
2016-12-06T13:41:54.782Z,1232
2016-12-06T13:42:54.790Z,1252
2016-12-06T13:43:54.458Z,1272
2016-12-06T13:44:54.774Z,1264
2016-12-06T13:45:54.770Z,1212
2016-12-06T13:46:54.770Z,1160
2016-12-06T13:47:54.768Z,1156
2016-12-06T13:48:54.762Z,1176
2016-12-06T13:49:54.110Z,1132
2016-12-06T13:50:54.762Z,1088
2016-12-06T13:51:54.754Z,1080
2016-12-06T13:52:54.426Z,1088
2016-12-06T13:53:54.750Z,1092
2016-12-06T13:54:54.780Z,1060
2016-12-06T13:55:54.742Z,1032
2016-12-06T13:56:54.415Z,1024
2016-12-06T13:57:54.747Z,1020
2016-12-06T13:58:54.739Z,992
2016-12-06T13:59:54.407Z,972
2016-12-06T14:00:54.734Z,992
2016-12-06T14:01:54.731Z,980
2016-12-06T14:02:54.403Z,940
2016-12-06T14:03:54.719Z,860